Time;durP1;ratioP1;P1;durP2;ratioP2;P2;SDS_P1;SDS_P2;PMS_P1;PMS_P2;Temp;Humidity;BMP_temperature;BMP_pressure;BME280_temperature;BME280_humidity;BME280_pressure;Samples;Min_cycle;Max_cycle;Signal;HPM_P1;HPM_P2
2021/12/16 10:45:03;;;;;;;13.83;8.13;;;2.40;99.90;;;;;;5095309;28;20290;-79
2021/12/16 10:47:28;;;;;;;16.97;9.30;;;2.40;99.90;;;;;;5096308;28;20501;-83
2021/12/16 10:49:54;;;;;;;15.77;9.20;;;2.50;99.90;;;;;;5097603;28;20430;-79
2021/12/16 10:52:26;;;;;;;15.23;9.07;;;2.80;99.90;;;;;;5097298;28;20179;-79
2021/12/16 10:54:55;;;;;;;18.43;8.97;;;3.00;99.90;;;;;;5079482;28;20242;-81
2021/12/16 10:57:25;;;;;;;15.87;9.13;;;2.70;99.90;;;;;;5079658;28;20411;-79
2021/12/16 10:59:57;;;;;;;16.17;9.40;;;2.60;99.90;;;;;;5097760;28;20398;-79
2021/12/16 11:02:24;;;;;;;15.17;9.47;;;2.60;99.90;;;;;;5097128;28;20442;-79
2021/12/16 11:05:10;;;;;;;14.53;9.40;;;2.50;99.90;;;;;;5078863;28;20488;-80
2021/12/16 11:07:39;;;;;;;11.37;7.93;;;2.60;99.90;;;;;;5096884;28;20508;-80
2021/12/16 11:10:12;;;;;;;13.80;8.30;;;2.70;99.90;;;;;;5078570;28;20962;-80
2021/12/16 11:13:04;;;;;;;13.27;8.20;;;2.70;99.90;;;;;;5096293;28;20479;-80
2021/12/16 11:15:39;;;;;;;11.13;7.07;;;3.10;99.90;;;;;;5091695;28;21001;-80
2021/12/16 11:18:17;;;;;;;10.70;6.90;;;3.00;99.90;;;;;;5077937;28;20399;-80
2021/12/16 11:20:59;;;;;;;10.53;6.53;;;3.10;99.90;;;;;;5076811;28;20406;-80
2021/12/16 11:23:29;;;;;;;12.60;7.43;;;3.30;99.90;;;;;;5093913;28;21047;-80
2021/12/16 11:26:08;;;;;;;17.30;9.87;;;3.40;99.90;;;;;;5093512;28;20453;-80
2021/12/16 11:28:42;;;;;;;14.23;9.10;;;3.30;99.90;;;;;;5075610;28;20846;-79
2021/12/16 11:31:17;;;;;;;16.10;10.57;;;3.30;99.90;;;;;;5101125;28;20411;-80
2021/12/16 11:33:56;;;;;;;20.57;10.00;;;3.30;99.90;;;;;;5097029;28;20868;-80
2021/12/16 11:36:31;;;;;;;18.40;10.30;;;3.10;99.90;;;;;;5079151;28;20441;-80
2021/12/16 11:39:23;;;;;;;15.67;8.90;;;3.10;99.90;;;;;;5078637;28;20414;-80
2021/12/16 11:41:51;;;;;;;13.87;8.07;;;3.10;99.90;;;;;;5096980;28;20402;-80
2021/12/16 11:44:19;;;;;;;11.07;7.93;;;3.10;99.90;;;;;;5078451;28;20484;-80
2021/12/16 11:46:57;;;;;;;11.27;7.63;;;3.10;99.90;;;;;;5095845;28;20423;-80
2021/12/16 11:49:25;;;;;;;11.73;7.33;;;3.00;99.90;;;;;;5077820;28;20418;-80
2021/12/16 11:51:56;;;;;;;10.93;7.20;;;3.00;99.90;;;;;;5096211;28;20413;-80
2021/12/16 11:54:34;;;;;;;12.70;6.87;;;3.10;99.90;;;;;;5075945;28;20406;-80
2021/12/16 11:57:24;;;;;;;10.30;6.67;;;3.10;99.90;;;;;;5065363;28;20426;-81
2021/12/16 12:00:17;;;;;;;10.60;6.80;;;3.10;99.90;;;;;;5065052;28;20813;-80
2021/12/16 12:02:52;;;;;;;9.77;6.53;;;3.20;99.90;;;;;;5082305;28;20395;-80
2021/12/16 12:05:35;;;;;;;10.30;7.47;;;3.20;99.90;;;;;;5083100;28;20423;-80
2021/12/16 12:08:06;;;;;;;9.40;6.47;;;3.20;99.90;;;;;;5082504;28;20403;-82
2021/12/16 12:10:43;;;;;;;11.63;7.30;;;3.60;99.90;;;;;;5082068;28;20399;-80
2021/12/16 12:13:13;;;;;;;10.17;6.50;;;3.80;99.90;;;;;;5064409;28;20415;-80
2021/12/16 12:15:58;;;;;;;10.63;7.07;;;3.80;99.90;;;;;;5082780;28;20423;-80
2021/12/16 12:19:01;;;;;;;18.90;9.33;;;4.10;99.90;;;;;;5082357;28;20407;-80
2021/12/16 12:21:37;;;;;;;10.97;7.50;;;4.10;99.90;;;;;;5064917;28;20430;-80
2021/12/16 12:24:18;;;;;;;9.77;7.07;;;4.70;99.90;;;;;;5064878;28;20450;-80
2021/12/16 12:26:54;;;;;;;8.13;5.83;;;4.70;99.90;;;;;;5082728;28;20403;-80
2021/12/16 12:29:23;;;;;;;10.53;7.20;;;4.90;99.90;;;;;;5064975;28;20780;-80
2021/12/16 12:32:00;;;;;;;8.50;5.83;;;4.90;99.90;;;;;;5065584;28;20461;-80
2021/12/16 12:34:26;;;;;;;7.40;5.60;;;5.00;99.90;;;;;;5066144;28;20948;-81
2021/12/16 12:36:55;;;;;;;8.20;6.03;;;5.00;99.90;;;;;;5066475;28;20770;-80
2021/12/16 12:39:24;;;;;;;9.27;6.67;;;4.80;99.90;;;;;;5066701;28;20427;-80
2021/12/16 12:41:52;;;;;;;8.30;6.00;;;4.60;99.90;;;;;;5065955;28;20423;-80
2021/12/16 12:44:17;;;;;;;8.97;6.27;;;4.30;99.90;;;;;;5064912;28;20462;-82
2021/12/16 12:46:45;;;;;;;8.07;5.63;;;4.30;99.90;;;;;;5065346;28;20500;-81
2021/12/16 12:49:16;;;;;;;8.17;6.57;;;4.30;99.90;;;;;;5066266;28;20175;-81
2021/12/16 12:51:48;;;;;;;10.70;6.83;;;4.40;99.90;;;;;;5066902;28;20411;-80
2021/12/16 12:54:18;;;;;;;8.53;6.43;;;4.80;99.90;;;;;;5067158;28;20650;-81
2021/12/16 12:56:44;;;;;;;9.37;6.87;;;4.80;99.90;;;;;;5065049;28;20431;-81
2021/12/16 12:59:12;;;;;;;7.23;5.63;;;4.80;99.90;;;;;;5082532;28;20180;-81
2021/12/16 13:01:44;;;;;;;6.97;5.10;;;4.80;99.90;;;;;;5082326;28;20935;-80
2021/12/16 13:04:17;;;;;;;7.43;4.83;;;4.90;99.90;;;;;;5083426;28;20820;-80
2021/12/16 13:06:55;;;;;;;6.17;4.90;;;4.90;99.90;;;;;;5084917;28;20396;-80
2021/12/16 13:09:30;;;;;;;8.70;6.10;;;4.90;99.90;;;;;;5063845;28;20403;-80
2021/12/16 13:11:56;;;;;;;14.57;7.40;;;4.90;99.90;;;;;;5081287;28;20403;-80
2021/12/16 13:14:40;;;;;;;8.20;5.47;;;4.70;99.90;;;;;;5080619;28;20412;-81
2021/12/16 13:28:51;;;;;;;8.47;4.57;;;4.40;99.90;;;;;;5080868;28;20390;-79
2021/12/16 13:37:54;;;;;;;6.40;4.40;;;4.10;99.90;;;;;;5072756;28;20429;-80
2021/12/16 13:40:22;;;;;;;6.97;5.20;;;4.10;99.90;;;;;;5062295;28;20407;-80
2021/12/16 13:42:54;;;;;;;7.77;4.33;;;4.10;99.90;;;;;;5080062;28;20781;-80
2021/12/16 13:45:26;;;;;;;6.77;5.13;;;4.10;99.90;;;;;;5062450;28;20443;-80
2021/12/16 14:15:26;;;;;;;5.17;4.33;;;4.10;99.90;;;;;;5079737;28;20476;-80
2021/12/16 14:23:23;;;;;;;6.53;4.63;;;3.50;99.90;;;;;;5079926;28;20454;-79
2021/12/16 14:31:31;;;;;;;9.37;6.13;;;3.10;99.90;;;;;;5081595;28;20403;-79
2021/12/16 14:42:37;;;;;;;10.30;4.73;;;3.00;99.90;;;;;;5074596;28;20753;-79
2021/12/16 14:46:04;;;;;;;7.40;4.83;;;3.10;99.90;;;;;;5078238;28;20496;-79
2021/12/16 14:50:45;;;;;;;5.70;4.07;;;3.20;99.90;;;;;;5080442;28;20485;-79
2021/12/16 14:53:18;;;;;;;8.43;5.00;;;3.10;99.90;;;;;;5078863;28;20411;-79
2021/12/16 14:55:45;;;;;;;9.10;5.13;;;3.10;99.90;;;;;;5060742;28;20451;-79
2021/12/16 14:58:11;;;;;;;6.93;5.40;;;3.10;99.90;;;;;;5079627;28;20411;-79
2021/12/16 15:00:49;;;;;;;6.20;4.70;;;2.80;99.90;;;;;;5078705;28;20411;-79
2021/12/16 15:03:30;;;;;;;7.93;5.53;;;2.80;99.90;;;;;;5061379;28;20987;-79
2021/12/16 15:06:04;;;;;;;5.27;4.40;;;2.70;99.90;;;;;;5060952;28;20431;-79
2021/12/16 15:08:39;;;;;;;7.03;4.60;;;2.70;99.90;;;;;;5080313;28;20401;-79
2021/12/16 15:11:08;;;;;;;6.77;5.33;;;2.60;99.90;;;;;;5062512;28;20411;-79
2021/12/16 15:13:50;;;;;;;6.23;4.80;;;;;;;;;;5064911;28;20862;-79
2021/12/16 15:17:07;;;;;;;6.43;5.10;;;2.60;99.90;;;;;;5061577;28;20427;-79
2021/12/16 15:36:16;;;;;;;58.67;31.60;;;2.30;99.90;;;;;;5082404;28;20771;-79
2021/12/16 15:38:47;;;;;;;30.13;17.93;;;2.20;99.90;;;;;;5082638;28;20423;-79
2021/12/16 15:44:10;;;;;;;35.60;17.50;;;2.10;99.90;;;;;;5083046;28;20496;-79
2021/12/16 15:46:36;;;;;;;24.03;13.13;;;;;;;;;;5064294;28;20911;-79
2021/12/16 15:49:03;;;;;;;22.00;12.03;;;1.90;99.90;;;;;;5082166;28;20411;-79
2021/12/16 15:51:29;;;;;;;16.20;10.30;;;;;;;;;;5064520;28;20415;-79
2021/12/16 15:53:58;;;;;;;14.40;9.87;;;1.80;99.90;;;;;;5082506;28;20461;-79
2021/12/16 15:56:42;;;;;;;25.23;15.43;;;1.80;99.90;;;;;;5082220;28;20435;-79
2021/12/16 15:59:14;;;;;;;27.67;16.27;;;1.80;99.90;;;;;;5081989;28;20896;-79
2021/12/16 16:01:44;;;;;;;26.77;16.13;;;1.60;99.90;;;;;;5082282;28;20414;-81
2021/12/16 16:04:17;;;;;;;19.70;12.83;;;1.50;99.90;;;;;;5064394;28;20546;-79
2021/12/16 16:06:46;;;;;;;19.80;11.30;;;1.60;99.90;;;;;;5064159;28;20419;-79
2021/12/16 16:09:13;;;;;;;14.70;8.40;;;1.50;99.90;;;;;;5065121;28;20419;-79
2021/12/16 16:11:52;;;;;;;15.43;8.60;;;1.50;99.90;;;;;;5082383;28;20415;-79
2021/12/16 16:14:20;;;;;;;16.50;9.00;;;1.50;99.90;;;;;;5063869;28;20414;-79
2021/12/16 16:16:50;;;;;;;17.03;10.70;;;1.40;99.90;;;;;;5081567;28;20422;-79
2021/12/16 16:19:30;;;;;;;15.87;8.63;;;1.50;99.90;;;;;;5082201;28;20396;-79
2021/12/16 16:22:00;;;;;;;16.00;10.57;;;1.50;99.90;;;;;;5082074;28;20438;-79
2021/12/16 16:24:29;;;;;;;14.83;8.57;;;1.40;99.90;;;;;;5081318;28;20489;-80
2021/12/16 16:26:59;;;;;;;14.23;8.93;;;1.40;99.90;;;;;;5081226;28;20900;-79
2021/12/16 16:29:28;;;;;;;19.93;11.73;;;1.60;99.90;;;;;;5068141;28;20411;-79
2021/12/16 16:31:54;;;;;;;19.30;10.43;;;1.30;99.90;;;;;;5081611;28;20918;-79
2021/12/16 16:34:23;;;;;;;18.97;11.33;;;1.50;99.90;;;;;;5083011;28;20919;-79
2021/12/16 16:36:53;;;;;;;16.93;9.87;;;1.40;99.90;;;;;;5082025;28;20430;-79
2021/12/16 16:39:23;;;;;;;14.57;9.10;;;1.50;99.90;;;;;;5063178;28;20932;-79
2021/12/16 16:41:56;;;;;;;17.33;9.90;;;1.60;99.90;;;;;;5082854;28;20410;-79
2021/12/16 16:44:24;;;;;;;16.37;10.97;;;1.60;99.90;;;;;;5082661;28;20462;-79
2021/12/16 16:47:08;;;;;;;15.00;10.27;;;1.70;99.90;;;;;;5082107;28;20408;-79
2021/12/16 16:49:47;;;;;;;14.67;9.80;;;1.70;99.90;;;;;;5063543;28;20442;-79
2021/12/16 16:52:17;;;;;;;17.77;10.83;;;1.60;99.90;;;;;;5063341;28;20411;-79
2021/12/16 16:54:52;;;;;;;14.07;9.83;;;1.80;99.90;;;;;;5081368;28;20439;-79
2021/12/16 16:57:34;;;;;;;13.00;9.30;;;1.70;99.90;;;;;;5062933;28;20415;-81
2021/12/16 17:00:09;;;;;;;16.17;8.93;;;1.70;99.90;;;;;;5079426;28;20434;-80
2021/12/16 17:02:48;;;;;;;13.23;8.47;;;1.70;99.90;;;;;;5062240;28;20470;-78
2021/12/16 17:05:24;;;;;;;12.00;8.50;;;1.60;99.90;;;;;;5079860;28;20963;-79
2021/12/16 17:07:50;;;;;;;16.87;10.10;;;;;;;;;;5081753;28;20387;-79
2021/12/16 17:10:21;;;;;;;22.83;13.97;;;1.80;99.90;;;;;;5080671;28;20763;-79
2021/12/16 17:12:47;;;;;;;19.63;10.90;;;1.80;99.90;;;;;;5080925;28;20195;-80
2021/12/16 17:15:34;;;;;;;24.07;13.30;;;;;;;;;;5062512;28;20431;-79
2021/12/16 17:17:59;;;;;;;16.10;9.97;;;;;;;;;;5080740;28;20267;-79
2021/12/16 17:20:25;;;;;;;20.80;11.77;;;1.90;99.90;;;;;;5080187;28;20491;-79
2021/12/16 17:22:52;;;;;;;17.63;10.13;;;2.00;99.90;;;;;;5078380;28;20403;-78
2021/12/16 17:25:20;;;;;;;19.13;11.07;;;1.90;99.90;;;;;;5061737;28;20533;-79
2021/12/16 17:27:55;;;;;;;32.87;15.50;;;2.00;99.90;;;;;;5080921;28;20403;-79
2021/12/16 17:30:42;;;;;;;22.30;12.50;;;1.90;99.90;;;;;;5081005;28;20804;-79
2021/12/16 17:33:13;;;;;;;34.30;15.20;;;1.90;99.90;;;;;;5046476;28;20430;-78
2021/12/16 17:35:47;;;;;;;23.77;12.70;;;1.90;99.90;;;;;;5044767;28;20504;-78
2021/12/16 17:38:17;;;;;;;18.47;10.77;;;1.90;99.90;;;;;;5077556;28;20419;-78
2021/12/16 17:40:47;;;;;;;20.23;11.63;;;1.80;99.90;;;;;;5076769;28;20465;-78
2021/12/16 17:43:18;;;;;;;18.10;11.93;;;1.90;99.90;;;;;;5056788;28;20462;-78
2021/12/16 17:45:46;;;;;;;26.40;14.37;;;1.90;99.90;;;;;;5074533;28;20514;-79
2021/12/16 17:48:17;;;;;;;53.60;37.27;;;1.90;99.90;;;;;;5078979;28;20415;-79
2021/12/16 17:50:46;;;;;;;36.93;24.37;;;1.80;99.90;;;;;;5080079;28;20877;-79
2021/12/16 17:53:12;;;;;;;44.40;23.43;;;;;;;;;;5079897;28;20426;-78
2021/12/16 17:55:43;;;;;;;20.90;13.97;;;1.80;99.90;;;;;;5062414;28;20454;-79
2021/12/16 17:58:15;;;;;;;70.93;26.20;;;1.80;99.90;;;;;;5081482;28;20411;-79
2021/12/16 18:00:48;;;;;;;91.30;33.47;;;1.80;99.90;;;;;;5081372;28;20388;-79
2021/12/16 18:03:27;;;;;;;33.10;17.50;;;2.00;99.90;;;;;;5081110;28;20447;-80
2021/12/16 18:05:57;;;;;;;28.83;17.97;;;1.80;99.90;;;;;;5080112;28;20514;-78
2021/12/16 18:08:23;;;;;;;23.63;15.60;;;;;;;;;;5081353;28;20745;-79
2021/12/16 18:10:49;;;;;;;25.40;16.07;;;1.70;99.90;;;;;;5080591;28;20407;-79
2021/12/16 18:13:15;;;;;;;19.77;13.83;;;;;;;;;;5080845;28;20176;-78
2021/12/16 18:15:41;;;;;;;62.67;25.87;;;;;;;;;;5080378;28;20284;-80
2021/12/16 18:18:11;;;;;;;28.23;15.37;;;1.70;99.90;;;;;;5063323;28;20451;-79
2021/12/16 18:20:49;;;;;;;41.97;19.27;;;1.90;99.90;;;;;;5080857;28;20419;-79
2021/12/16 18:23:22;;;;;;;29.13;15.40;;;1.60;99.90;;;;;;5080705;28;20813;-79
2021/12/16 18:25:51;;;;;;;23.13;13.17;;;1.60;99.90;;;;;;5080840;28;20433;-79
2021/12/16 18:28:17;;;;;;;116.93;37.13;;;;;;;;;;5079981;28;20783;-78
2021/12/16 18:30:51;;;;;;;81.87;32.93;;;1.50;99.90;;;;;;5078823;28;20407;-79
2021/12/16 18:33:22;;;;;;;25.60;13.90;;;1.50;99.90;;;;;;5081511;28;20403;-79
2021/12/16 18:35:51;;;;;;;23.17;14.40;;;1.40;99.90;;;;;;5064754;28;20810;-79
2021/12/16 18:38:30;;;;;;;96.07;34.33;;;1.40;99.90;;;;;;5081021;28;20422;-79
2021/12/16 18:40:58;;;;;;;101.30;39.37;;;1.40;99.90;;;;;;5063111;28;20837;-80
2021/12/16 18:43:28;;;;;;;104.90;41.40;;;1.40;99.90;;;;;;5062626;28;20475;-79
2021/12/16 18:45:57;;;;;;;64.80;30.10;;;;;;;;;;5080947;28;20430;-79
2021/12/16 18:56:15;;;;;;;29.47;15.63;;;;;;;;;;5081418;28;20457;-79
2021/12/16 18:58:41;;;;;;;21.13;13.10;;;;;;;;;;5063343;28;20947;-80
2021/12/16 19:01:18;;;;;;;30.20;18.83;;;1.70;99.90;;;;;;5063227;28;20419;-80
2021/12/16 19:03:45;;;;;;;19.77;13.50;;;1.70;99.90;;;;;;5080006;28;20450;-79
2021/12/16 19:06:18;;;;;;;26.10;15.77;;;1.70;99.90;;;;;;5083452;28;20427;-79
2021/12/16 19:08:45;;;;;;;24.50;14.97;;;;;;;;;;5066613;28;20411;-79
2021/12/16 19:11:12;;;;;;;21.90;13.73;;;1.80;99.90;;;;;;5066696;28;20411;-80
2021/12/16 19:13:42;;;;;;;22.63;14.03;;;1.80;99.90;;;;;;5085816;28;20853;-79
2021/12/16 19:16:09;;;;;;;21.73;14.17;;;1.70;99.90;;;;;;5084731;28;20517;-79
2021/12/16 19:18:37;;;;;;;17.60;12.10;;;1.70;99.90;;;;;;5085300;28;20411;-79
2021/12/16 19:21:07;;;;;;;22.13;13.37;;;;;;;;;;5083764;28;20407;-79
2021/12/16 19:23:33;;;;;;;17.23;12.27;;;;;;;;;;5067033;28;20493;-79
2021/12/16 19:25:59;;;;;;;14.80;11.50;;;;;;;;;;5084840;28;20448;-79
2021/12/16 19:28:26;;;;;;;27.40;17.87;;;1.70;99.90;;;;;;5085163;28;20403;-79
2021/12/16 19:30:56;;;;;;;17.53;11.20;;;1.70;99.90;;;;;;5084215;28;20422;-79
2021/12/16 19:33:23;;;;;;;18.37;11.67;;;;;;;;;;5084364;28;20427;-79
2021/12/16 19:35:49;;;;;;;20.90;11.83;;;;;;;;;;5066573;28;20959;-79
2021/12/16 19:38:19;;;;;;;25.13;15.87;;;;;;;;;;5066476;28;20781;-78
2021/12/16 19:40:45;;;;;;;27.50;16.53;;;;;;;;;;5083851;28;20418;-79
2021/12/16 19:43:11;;;;;;;48.80;23.73;;;1.50;99.90;;;;;;5066411;28;21058;-79
2021/12/16 19:45:42;;;;;;;37.57;20.70;;;1.50;99.90;;;;;;5084126;28;20418;-79
2021/12/16 19:48:09;;;;;;;30.20;18.10;;;1.40;99.90;;;;;;5084639;28;20386;-79
2021/12/16 19:50:37;;;;;;;31.30;16.90;;;1.30;99.90;;;;;;5084075;28;20414;-79
2021/12/16 19:53:05;;;;;;;25.73;16.00;;;;;;;;;;5083962;28;20399;-79
2021/12/16 19:55:31;;;;;;;21.73;13.70;;;;;;;;;;5067345;28;20422;-79
2021/12/16 19:58:03;;;;;;;23.83;14.17;;;1.20;99.90;;;;;;5067393;28;20415;-79
2021/12/16 20:00:35;;;;;;;23.40;13.57;;;1.10;99.90;;;;;;5085093;28;20805;-79
2021/12/16 20:03:01;;;;;;;22.77;13.33;;;;;;;;;;5065348;28;20391;-79
2021/12/16 20:05:27;;;;;;;16.37;10.83;;;;;;;;;;5083539;28;20497;-79
2021/12/16 20:07:54;;;;;;;19.27;11.27;;;1.10;99.90;;;;;;5084542;28;20399;-81
2021/12/16 20:10:30;;;;;;;17.37;11.20;;;0.90;99.90;;;;;;5084282;28;20419;-79
2021/12/16 20:12:58;;;;;;;18.70;11.23;;;;;;;;;;5083883;28;20437;-79
2021/12/16 20:15:30;;;;;;;18.30;12.20;;;1.00;99.90;;;;;;5083084;28;20416;-78
2021/12/16 20:17:57;;;;;;;21.27;12.73;;;1.10;99.90;;;;;;5083650;28;20409;-79
2021/12/16 20:20:34;;;;;;;19.30;13.37;;;1.10;99.90;;;;;;5083174;28;20896;-79
